Aviation Digital Data Service (ADDS)

Output produced by METARs form (0018 UTC 30 May 2020)
found at http://www.aviationweather.gov/metar/data/
 
METAR text: EGSH 292350Z AUTO 03004KT 9999 NCD 09/08 Q1027
Conditions at: EGSH (NORWICH WEA CNTR, GB) observed 2350 UTC 29 May 2020
Temperature: 9.0°C (48°F)
Dewpoint: 8.0°C (46°F) [RH = 93%]
Pressure (altimeter): 30.32 inches Hg (1027.0 mb)
Winds: from the NNE (30 degrees) at 5 MPH (4 knots; 2.1 m/s)
Visibility: 6 or more miles (10+ km)
Ceiling: at least 12,000 feet AGL
Clouds: sky clear below 12,000 feet AGL
Weather: no significant weather observed at this time